Terminal Aerodrome Forecast
Issued by NWS

Home | Current Version | Previous Version | Text Only | Print | Product List | Glossary On
Versions: 1 2 3 4 5 6 7 8 9 10 11 12 13 14 15
000
FTUS41 KBTV 042324
TAFSLK
TAF
KSLK 042324Z 0500/0524 00000KT P6SM SCT050
      TEMPO 0502/0504 4SM BR FEW001
     FM050400 00000KT 3SM BR SCT001
      TEMPO 0504/0507 1SM BR BKN001
     FM050700 00000KT 1SM BR BKN001
     FM051100 25007KT P6SM SCT050=

USA.gov is the U.S. government's official web portal to all federal, state and local government web resources and services.